createdAt,value
2018-11-23T00:00:14.025Z,32.97
2018-11-23T00:02:43.704Z,32.10
2018-11-23T00:05:13.295Z,34.33
2018-11-23T00:07:42.694Z,34.90
2018-11-23T00:10:13.010Z,32.40
2018-11-23T00:12:41.481Z,32.90
2018-11-23T00:15:12.267Z,34.13
2018-11-23T00:17:41.132Z,32.43
2018-11-23T00:20:12.617Z,33.77
2018-11-23T00:22:41.114Z,32.13
2018-11-23T00:25:11.939Z,32.27
2018-11-23T00:27:40.586Z,32.37
2018-11-23T00:30:12.369Z,32.63
2018-11-23T00:32:47.161Z,33.07
2018-11-23T00:35:17.539Z,31.07
2018-11-23T00:37:46.611Z,33.43
2018-11-23T00:40:20.489Z,31.33
2018-11-23T00:42:49.373Z,31.87
2018-11-23T00:45:17.879Z,31.37
2018-11-23T00:47:47.094Z,32.03
2018-11-23T00:50:17.393Z,30.80
2018-11-23T00:52:46.508Z,31.13
2018-11-23T00:55:16.505Z,32.17
2018-11-23T00:57:45.533Z,30.17
2018-11-23T01:00:22.354Z,31.00
2018-11-23T01:02:50.927Z,32.53
2018-11-23T01:05:20.937Z,30.20
2018-11-23T01:07:49.898Z,30.20
2018-11-23T01:10:19.781Z,30.17
2018-11-23T01:12:49.300Z,30.27
2018-11-23T01:15:17.801Z,32.07
2018-11-23T01:17:46.316Z,28.90
2018-11-23T01:20:23.177Z,28.70
2018-11-23T01:22:52.233Z,27.73
2018-11-23T01:25:21.662Z,32.10
2018-11-23T01:27:51.231Z,30.97
2018-11-23T01:30:21.776Z,32.07
2018-11-23T01:32:50.314Z,31.30
2018-11-23T01:35:18.963Z,29.87
2018-11-23T01:37:47.436Z,28.87
2018-11-23T01:40:18.344Z,32.50
2018-11-23T01:42:47.447Z,31.67
2018-11-23T01:45:16.295Z,30.40
2018-11-23T01:47:45.023Z,31.37
2018-11-23T01:50:16.783Z,30.17
2018-11-23T01:52:46.986Z,31.00
2018-11-23T01:55:16.544Z,30.70
2018-11-23T01:57:45.493Z,29.83
2018-11-23T02:00:15.861Z,32.93
2018-11-23T02:02:45.016Z,30.03
2018-11-23T02:05:13.636Z,27.80
2018-11-23T02:07:42.164Z,29.00
2018-11-23T02:10:12.187Z,27.40
2018-11-23T02:12:41.066Z,25.63
2018-11-23T02:15:12.453Z,25.17
2018-11-23T02:17:41.031Z,27.60
2018-11-23T02:20:10.971Z,26.47
2018-11-23T02:22:39.472Z,25.07
2018-11-23T02:25:07.973Z,27.30
2018-11-23T02:27:36.556Z,21.80
2018-11-23T02:30:09.048Z,22.03
2018-11-23T02:32:37.573Z,25.93
2018-11-23T02:35:06.281Z,25.40
2018-11-23T02:37:34.775Z,27.17
2018-11-23T02:40:04.430Z,28.63
2018-11-23T02:42:33.181Z,28.37
2018-11-23T02:45:01.660Z,27.77
2018-11-23T02:47:30.504Z,27.23
2018-11-23T02:49:58.996Z,28.07
2018-11-23T02:52:27.468Z,31.43
2018-11-23T02:54:55.950Z,32.23
2018-11-23T02:57:24.893Z,32.43
2018-11-23T02:59:53.376Z,32.03
2018-11-23T03:02:21.852Z,30.43
2018-11-23T03:04:50.444Z,31.03
2018-11-23T03:07:18.922Z,28.67
2018-11-23T03:09:47.378Z,30.60
2018-11-23T03:12:15.872Z,29.97
2018-11-23T03:14:44.387Z,28.87
2018-11-23T03:17:12.866Z,30.40
2018-11-23T03:19:42.073Z,31.47
2018-11-23T03:22:11.113Z,29.43
2018-11-23T03:24:40.331Z,31.13
2018-11-23T03:27:08.824Z,28.83
2018-11-23T03:29:37.597Z,28.30
2018-11-23T03:32:06.326Z,28.80
2018-11-23T03:34:34.816Z,29.00
2018-11-23T03:37:03.470Z,27.87
2018-11-23T03:39:34.171Z,30.93
2018-11-23T03:42:00.875Z,28.67
2018-11-23T03:44:30.006Z,28.87
2018-11-23T03:46:58.472Z,30.90
2018-11-23T03:49:27.033Z,32.30
2018-11-23T03:51:55.506Z,30.63
2018-11-23T03:54:24.006Z,31.97
2018-11-23T03:56:52.473Z,33.43
2018-11-23T03:59:20.952Z,31.90
2018-11-23T04:01:49.415Z,32.67
2018-11-23T04:04:17.898Z,31.93
2018-11-23T04:06:46.490Z,32.10
2018-11-23T04:09:14.961Z,32.90
2018-11-23T04:11:43.463Z,31.93
2018-11-23T04:21:00.243Z,31.27
2018-11-23T04:23:29.526Z,31.47
2018-11-23T04:25:57.990Z,32.30
2018-11-23T04:28:26.697Z,31.23
2018-11-23T04:30:55.622Z,32.63
2018-11-23T04:33:24.687Z,30.77
2018-11-23T04:35:53.173Z,30.63
2018-11-23T04:38:22.025Z,29.93
2018-11-23T04:40:50.556Z,30.90
2018-11-23T04:43:19.055Z,31.33
2018-11-23T04:45:47.721Z,30.27
2018-11-23T04:48:16.686Z,30.67
2018-11-23T04:50:45.353Z,32.80
2018-11-23T04:53:13.971Z,31.37
2018-11-23T04:55:42.450Z,31.93
2018-11-23T04:58:10.991Z,30.93
2018-11-23T05:00:39.461Z,31.23
2018-11-23T05:03:07.990Z,31.60
2018-11-23T05:05:36.513Z,30.63
2018-11-23T05:08:05.385Z,31.67
2018-11-23T05:10:34.039Z,31.53
2018-11-23T05:13:02.823Z,29.73
2018-11-23T05:15:31.447Z,31.03
2018-11-23T05:18:00.653Z,31.70
2018-11-23T05:20:29.355Z,33.40
2018-11-23T05:22:57.905Z,30.83
2018-11-23T05:25:26.413Z,32.90
2018-11-23T05:27:54.903Z,30.90
2018-11-23T05:30:23.397Z,29.67
2018-11-23T05:32:51.885Z,30.30
2018-11-23T05:35:20.369Z,30.13
2018-11-23T05:37:48.904Z,30.47
2018-11-23T05:40:18.785Z,30.73
2018-11-23T05:42:47.287Z,30.83
2018-11-23T05:45:17.196Z,30.00
2018-11-23T05:47:45.887Z,30.93
2018-11-23T05:50:22.330Z,30.37
2018-11-23T05:52:50.884Z,30.13
2018-11-23T05:55:19.389Z,31.13
2018-11-23T05:57:47.998Z,30.60
2018-11-23T06:00:22.267Z,31.50
2018-11-23T06:02:50.966Z,31.00
2018-11-23T06:05:19.582Z,31.47
2018-11-23T06:07:48.094Z,31.57
2018-11-23T06:10:17.922Z,29.60
2018-11-23T06:12:46.509Z,29.20
2018-11-23T06:15:17.407Z,29.60
2018-11-23T06:17:46.379Z,31.13
2018-11-23T06:20:16.910Z,29.67
2018-11-23T06:22:46.293Z,31.57
2018-11-23T06:25:50.957Z,30.07
2018-11-23T06:28:18.636Z,31.10
2018-11-23T06:30:47.142Z,30.57
2018-11-23T06:33:37.669Z,29.97
2018-11-23T06:36:06.374Z,29.20
2018-11-23T06:38:35.048Z,29.97
2018-11-23T06:41:10.050Z,30.37
2018-11-23T06:43:32.192Z,32.63
2018-11-23T06:46:01.840Z,30.20
2018-11-23T06:48:30.480Z,31.60
2018-11-23T06:50:59.018Z,32.60
2018-11-23T06:53:27.579Z,32.20
2018-11-23T06:55:57.006Z,32.53
2018-11-23T06:58:25.671Z,33.50
2018-11-23T07:00:55.029Z,33.10
2018-11-23T07:03:23.692Z,32.50
2018-11-23T07:05:52.535Z,32.93
2018-11-23T07:08:21.823Z,30.50
2018-11-23T07:10:50.642Z,29.60
2018-11-23T07:13:19.365Z,31.10
2018-11-23T07:15:47.891Z,30.63
2018-11-23T07:18:16.526Z,31.57
2018-11-23T07:20:45.056Z,29.57
2018-11-23T07:23:13.560Z,29.23
2018-11-23T07:25:42.112Z,30.10
2018-11-23T07:28:15.465Z,31.60
2018-11-23T07:30:39.185Z,32.27
2018-11-23T07:33:07.916Z,32.47
2018-11-23T07:35:36.457Z,33.97
2018-11-23T07:38:04.997Z,31.20
2018-11-23T07:42:50.683Z,33.63
2018-11-23T07:45:19.159Z,31.00
2018-11-23T07:47:47.820Z,32.20
2018-11-23T07:50:16.615Z,34.30
2018-11-23T07:52:45.285Z,34.33
2018-11-23T07:55:14.159Z,33.27
2018-11-23T07:57:42.819Z,31.33
2018-11-23T08:00:17.294Z,33.73
2018-11-23T08:02:46.751Z,33.10
2018-11-23T08:05:16.479Z,33.27
2018-11-23T08:07:45.019Z,32.90
2018-11-23T08:10:13.785Z,33.53
2018-11-23T08:12:44.605Z,31.80
2018-11-23T08:15:17.154Z,35.70
2018-11-23T08:17:45.858Z,37.03
2018-11-23T08:20:16.454Z,34.60
2018-11-23T08:22:45.101Z,34.33
2018-11-23T08:25:14.990Z,34.27
2018-11-23T08:27:44.196Z,34.37
2018-11-23T08:30:16.424Z,32.47
2018-11-23T08:32:45.152Z,31.07
2018-11-23T08:35:13.866Z,31.97
2018-11-23T08:37:42.455Z,32.60
2018-11-23T08:40:13.858Z,31.80
2018-11-23T08:42:43.137Z,30.87
2018-11-23T08:45:13.433Z,31.23
2018-11-23T08:47:41.956Z,32.87
2018-11-23T08:50:13.286Z,32.90
2018-11-23T08:52:41.894Z,31.70
2018-11-23T08:55:11.682Z,33.40
2018-11-23T08:57:41.001Z,33.17
2018-11-23T09:00:19.134Z,32.67
2018-11-23T09:02:48.725Z,33.23
2018-11-23T09:05:17.663Z,34.10
2018-11-23T09:07:47.281Z,33.20
2018-11-23T09:10:18.672Z,32.77
2018-11-23T09:12:49.445Z,30.77
2018-11-23T09:15:17.961Z,32.30
2018-11-23T09:17:46.696Z,31.33
2018-11-23T09:20:16.182Z,35.73
2018-11-23T09:22:44.779Z,37.43
2018-11-23T09:25:14.529Z,40.90
2018-11-23T09:27:43.030Z,33.30
2018-11-23T09:30:15.959Z,32.27
2018-11-23T09:32:45.065Z,30.53
2018-11-23T09:35:14.542Z,28.40
2018-11-23T09:37:43.320Z,28.90
2018-11-23T09:40:18.170Z,29.10
2018-11-23T09:42:46.673Z,27.97
2018-11-23T09:45:17.382Z,29.77
2018-11-23T09:47:46.594Z,28.87
2018-11-23T09:50:16.796Z,28.57
2018-11-23T09:52:46.508Z,27.10
2018-11-23T09:55:15.069Z,29.53
2018-11-23T09:57:43.906Z,30.30
2018-11-23T10:00:14.914Z,29.17
2018-11-23T10:02:43.893Z,30.43
2018-11-23T10:05:13.404Z,28.60
2018-11-23T10:07:42.870Z,28.37
2018-11-23T10:10:12.432Z,30.00
2018-11-23T10:12:41.300Z,28.17
2018-11-23T10:15:11.251Z,27.00
2018-11-23T10:17:42.174Z,27.40
2018-11-23T10:20:14.027Z,25.20
2018-11-23T10:22:43.017Z,26.10
2018-11-23T10:25:12.916Z,26.20
2018-11-23T10:27:42.226Z,25.03
2018-11-23T10:30:15.485Z,26.47
2018-11-23T10:32:44.828Z,26.87
2018-11-23T10:35:13.323Z,27.73
2018-11-23T10:37:42.650Z,26.07
2018-11-23T10:40:13.868Z,25.40
2018-11-23T10:42:42.760Z,25.93
2018-11-23T10:45:17.440Z,27.30
2018-11-23T10:47:46.392Z,26.23
2018-11-23T10:50:16.969Z,26.87
2018-11-23T10:52:45.652Z,25.63
2018-11-23T10:55:16.484Z,25.93
2018-11-23T10:57:45.101Z,26.03
2018-11-23T11:00:21.035Z,26.13
2018-11-23T11:02:55.636Z,25.40
2018-11-23T11:05:31.069Z,27.63
2018-11-23T11:08:01.045Z,26.23
2018-11-23T11:10:29.673Z,25.83
2018-11-23T11:12:58.656Z,26.43
2018-11-23T11:15:27.324Z,26.07
2018-11-23T11:17:55.805Z,25.17
2018-11-23T11:20:24.469Z,26.17
2018-11-23T11:22:52.973Z,25.33
2018-11-23T11:25:21.483Z,25.60
2018-11-23T11:27:49.955Z,25.60
2018-11-23T11:30:19.131Z,24.70
2018-11-23T11:32:48.410Z,24.97
2018-11-23T11:35:16.883Z,26.37
2018-11-23T11:37:45.593Z,25.27
2018-11-23T11:40:15.689Z,25.27
2018-11-23T11:42:44.590Z,23.40
2018-11-23T11:45:17.371Z,24.37
2018-11-23T11:47:46.391Z,24.40
2018-11-23T11:50:15.385Z,23.93
2018-11-23T11:52:45.693Z,21.50
2018-11-23T11:55:16.579Z,23.00
2018-11-23T11:57:45.721Z,21.43
2018-11-23T12:00:18.776Z,21.70
2018-11-23T12:02:48.040Z,21.10
2018-11-23T12:05:16.553Z,20.90
2018-11-23T12:07:45.069Z,21.00
2018-11-23T12:10:16.250Z,22.20
2018-11-23T12:12:44.792Z,22.27
2018-11-23T12:15:14.313Z,21.53
2018-11-23T12:17:43.508Z,21.63
2018-11-23T12:20:22.280Z,21.77
2018-11-23T12:22:51.226Z,22.20
2018-11-23T12:25:20.321Z,23.73
2018-11-23T12:27:48.872Z,22.83
2018-11-23T12:30:18.919Z,26.70
2018-11-23T12:32:48.830Z,24.23
2018-11-23T12:35:18.435Z,22.70
2018-11-23T12:37:47.141Z,27.77
2018-11-23T12:40:17.161Z,31.83
2018-11-23T12:42:46.441Z,35.33
2018-11-23T12:45:17.139Z,25.23
2018-11-23T12:47:45.819Z,24.37
2018-11-23T12:50:16.566Z,24.37
2018-11-23T12:52:45.473Z,25.83
2018-11-23T12:55:14.386Z,25.33
2018-11-23T12:57:43.070Z,24.23
2018-11-23T13:00:31.195Z,25.17
2018-11-23T13:03:01.349Z,25.27
2018-11-23T13:05:30.886Z,24.87
2018-11-23T13:08:00.975Z,27.23
2018-11-23T13:10:30.057Z,25.00
2018-11-23T13:12:59.283Z,24.60
2018-11-23T13:15:27.897Z,24.83
2018-11-23T13:17:57.124Z,25.67
2018-11-23T13:20:25.623Z,24.63
2018-11-23T13:22:54.137Z,24.87
2018-11-23T13:25:24.399Z,26.40
2018-11-23T13:27:52.961Z,25.23
2018-11-23T13:30:29.300Z,25.70
2018-11-23T13:32:57.806Z,25.03
2018-11-23T13:35:26.314Z,25.63
2018-11-23T13:37:54.839Z,24.83
2018-11-23T13:40:24.716Z,23.80
2018-11-23T13:42:54.364Z,25.30
2018-11-23T13:45:24.509Z,25.80
2018-11-23T13:47:53.604Z,26.13
2018-11-23T13:50:24.002Z,25.43
2018-11-23T13:52:54.300Z,25.47
2018-11-23T13:55:22.810Z,26.33
2018-11-23T13:57:51.310Z,24.37
2018-11-23T14:00:21.396Z,22.97
2018-11-23T14:02:49.964Z,24.03
2018-11-23T14:05:19.763Z,25.33
2018-11-23T14:07:49.854Z,26.00
2018-11-23T14:10:20.032Z,24.10
2018-11-23T14:12:48.818Z,25.20
2018-11-23T14:15:18.799Z,25.30
2018-11-23T14:17:48.274Z,25.07
2018-11-23T14:20:17.967Z,23.60
2018-11-23T14:22:46.691Z,22.80
2018-11-23T14:25:16.628Z,23.77
2018-11-23T14:27:45.861Z,24.17
2018-11-23T14:30:16.861Z,23.00
2018-11-23T14:32:45.744Z,22.00
2018-11-23T14:35:15.553Z,23.17
2018-11-23T14:37:44.721Z,23.27
2018-11-23T14:40:13.846Z,24.80
2018-11-23T14:42:43.361Z,23.67
2018-11-23T14:45:14.299Z,24.07
2018-11-23T14:47:43.103Z,22.83
2018-11-23T14:50:14.739Z,23.60
2018-11-23T14:52:44.659Z,23.27
2018-11-23T14:55:13.245Z,24.00
2018-11-23T14:57:42.666Z,23.30
2018-11-23T15:00:19.924Z,22.73
2018-11-23T15:02:49.763Z,21.83
2018-11-23T15:05:18.727Z,23.00
2018-11-23T15:07:47.411Z,24.57
2018-11-23T15:10:19.246Z,25.03
2018-11-23T15:12:49.115Z,24.50
2018-11-23T15:15:22.055Z,24.73
2018-11-23T15:17:52.265Z,23.70
2018-11-23T15:20:25.924Z,23.37
2018-11-23T15:22:56.425Z,23.87
2018-11-23T15:25:24.909Z,24.37
2018-11-23T15:27:53.800Z,25.07
2018-11-23T15:30:24.637Z,25.20
2018-11-23T15:32:53.164Z,24.50
2018-11-23T15:35:21.742Z,25.93
2018-11-23T15:37:50.426Z,26.47
2018-11-23T15:40:21.636Z,26.63
2018-11-23T15:42:51.366Z,25.97
2018-11-23T15:45:23.629Z,25.83
2018-11-23T15:47:52.322Z,24.90
2018-11-23T15:50:24.216Z,23.83
2018-11-23T15:52:53.686Z,24.77
2018-11-23T15:55:24.764Z,23.03
2018-11-23T15:57:54.416Z,23.93
2018-11-23T16:00:25.634Z,23.50
2018-11-23T16:02:54.385Z,21.80
2018-11-23T16:05:24.270Z,22.20
2018-11-23T16:07:54.514Z,23.17
2018-11-23T16:10:25.958Z,21.27
2018-11-23T16:12:55.854Z,21.23
2018-11-23T16:15:25.185Z,22.50
2018-11-23T16:17:54.191Z,22.90
2018-11-23T16:20:25.830Z,20.07
2018-11-23T16:22:55.918Z,19.97
2018-11-23T16:25:24.433Z,22.73
2018-11-23T16:27:56.585Z,22.17
2018-11-23T16:30:27.586Z,19.70
2018-11-23T16:32:57.426Z,21.20
2018-11-23T16:35:28.149Z,21.27
2018-11-23T16:37:58.478Z,22.13
2018-11-23T16:40:28.406Z,23.50
2018-11-23T16:42:57.705Z,22.37
2018-11-23T16:45:28.447Z,22.73
2018-11-23T16:47:58.893Z,22.30
2018-11-23T16:50:28.048Z,21.70
2018-11-23T16:52:57.148Z,21.97
2018-11-23T16:55:25.969Z,20.93
2018-11-23T16:57:56.904Z,23.07
2018-11-23T17:00:26.600Z,24.60
2018-11-23T17:02:56.657Z,23.40
2018-11-23T17:05:26.973Z,23.73
2018-11-23T17:07:55.521Z,23.53
2018-11-23T17:10:24.124Z,24.00
2018-11-23T17:12:52.812Z,23.73
2018-11-23T17:15:22.717Z,24.23
2018-11-23T17:17:51.412Z,23.70
2018-11-23T17:20:22.326Z,22.63
2018-11-23T17:22:51.862Z,24.23
2018-11-23T17:25:21.436Z,23.90
2018-11-23T17:27:50.813Z,22.83
2018-11-23T17:30:23.064Z,22.03
2018-11-23T17:32:51.818Z,22.03
2018-11-23T17:35:21.625Z,21.20
2018-11-23T17:37:50.169Z,20.87
2018-11-23T17:40:20.200Z,21.73
2018-11-23T17:42:48.813Z,21.17
2018-11-23T17:45:19.249Z,23.17
2018-11-23T17:47:48.117Z,22.27
2018-11-23T17:50:17.997Z,20.43
2018-11-23T17:52:46.686Z,22.13
2018-11-23T17:55:15.488Z,22.27
2018-11-23T17:57:45.416Z,23.30
2018-11-23T18:00:17.911Z,24.23
2018-11-23T18:02:46.901Z,24.93
2018-11-23T18:05:16.273Z,25.70
2018-11-23T18:07:44.953Z,24.97
2018-11-23T18:10:15.950Z,28.60
2018-11-23T18:12:45.110Z,28.20
2018-11-23T18:15:16.359Z,29.17
2018-11-23T18:17:45.657Z,26.73
2018-11-23T18:20:15.681Z,28.83
2018-11-23T18:22:44.561Z,27.20
2018-11-23T18:25:16.049Z,28.00
2018-11-23T18:27:45.127Z,26.07
2018-11-23T18:30:14.160Z,25.23
2018-11-23T18:32:42.643Z,24.80
2018-11-23T18:35:12.609Z,26.30
2018-11-23T18:37:41.123Z,24.17
2018-11-23T18:40:12.721Z,25.47
2018-11-23T18:42:41.199Z,23.90
2018-11-23T18:45:12.717Z,27.07
2018-11-23T18:47:42.313Z,24.27
2018-11-23T18:50:13.363Z,24.53
2018-11-23T18:52:42.281Z,24.30
2018-11-23T18:55:18.013Z,22.83
2018-11-23T18:57:41.251Z,24.87
2018-11-23T19:00:12.741Z,23.00
2018-11-23T19:02:41.817Z,21.63
2018-11-23T19:05:14.847Z,22.63
2018-11-23T19:07:43.367Z,23.43
2018-11-23T19:10:13.102Z,22.57
2018-11-23T19:12:42.413Z,22.90
2018-11-23T19:15:12.375Z,24.73
2018-11-23T19:17:40.903Z,24.40
2018-11-23T19:20:14.585Z,25.17
2018-11-23T19:22:44.322Z,26.23
2018-11-23T19:25:12.817Z,23.97
2018-11-23T19:27:41.315Z,26.73
2018-11-23T19:30:11.516Z,24.10
2018-11-23T19:32:40.034Z,22.73
2018-11-23T19:35:08.749Z,24.60
2018-11-23T19:37:37.733Z,25.27
2018-11-23T19:40:09.402Z,24.53
2018-11-23T19:42:37.917Z,23.87
2018-11-23T19:45:09.637Z,22.90
2018-11-23T19:47:38.931Z,24.27
2018-11-23T19:50:10.438Z,26.37
2018-11-23T19:52:39.484Z,23.40
2018-11-23T19:55:09.005Z,23.53
2018-11-23T19:57:38.139Z,24.40
2018-11-23T20:00:16.416Z,24.67
2018-11-23T20:02:45.284Z,22.27
2018-11-23T20:05:14.127Z,23.53
2018-11-23T20:07:43.229Z,21.40
2018-11-23T20:10:18.078Z,23.40
2018-11-23T20:12:47.783Z,24.87
2018-11-23T20:15:17.597Z,24.93
2018-11-23T20:17:46.105Z,23.97
2018-11-23T20:20:15.471Z,25.93
2018-11-23T20:22:44.499Z,24.83
2018-11-23T20:25:16.598Z,23.57
2018-11-23T20:27:45.722Z,26.07
2018-11-23T20:30:16.255Z,25.17
2018-11-23T20:32:44.844Z,23.60
2018-11-23T20:35:17.449Z,25.13
2018-11-23T20:37:46.057Z,25.27
2018-11-23T20:40:15.800Z,24.40
2018-11-23T20:42:44.289Z,25.10
2018-11-23T20:45:13.161Z,25.27
2018-11-23T20:47:41.649Z,25.30
2018-11-23T20:50:12.561Z,26.13
2018-11-23T20:52:41.109Z,25.73
2018-11-23T20:55:11.121Z,25.00
2018-11-23T20:57:39.607Z,27.00
2018-11-23T21:00:11.449Z,25.47
2018-11-23T21:02:40.885Z,24.13
2018-11-23T21:05:11.077Z,25.03
2018-11-23T21:07:39.739Z,26.10
2018-11-23T21:10:20.114Z,25.60
2018-11-23T21:12:41.685Z,25.87
2018-11-23T21:15:30.958Z,27.40
2018-11-23T21:18:01.833Z,25.23
2018-11-23T21:20:30.173Z,24.13
2018-11-23T21:22:58.657Z,24.00
2018-11-23T21:25:27.230Z,22.87
2018-11-23T21:27:55.955Z,22.80
2018-11-23T21:30:24.685Z,22.20
2018-11-23T21:32:54.286Z,20.30
2018-11-23T21:35:22.886Z,19.77
2018-11-23T21:37:51.377Z,21.87
2018-11-23T21:40:19.932Z,21.23
2018-11-23T21:42:48.596Z,20.87
2018-11-23T21:45:18.196Z,21.00
2018-11-23T21:47:46.722Z,20.33
2018-11-23T21:50:16.282Z,21.03
2018-11-23T21:52:46.171Z,23.50
2018-11-23T21:55:17.264Z,23.57
2018-11-23T21:57:45.804Z,23.40
2018-11-23T22:00:15.150Z,24.50
2018-11-23T22:02:43.655Z,26.60
2018-11-23T22:05:12.686Z,25.17
2018-11-23T22:07:44.742Z,24.30
2018-11-23T22:10:18.510Z,23.93
2018-11-23T22:12:47.443Z,23.83
2018-11-23T22:15:21.909Z,23.43
2018-11-23T22:17:51.534Z,22.07
2018-11-23T22:20:21.825Z,23.47
2018-11-23T22:22:50.392Z,22.90
2018-11-23T22:25:20.013Z,24.43
2018-11-23T22:27:51.354Z,23.60
2018-11-23T22:30:24.559Z,27.60
2018-11-23T22:32:53.017Z,28.47
2018-11-23T22:35:22.443Z,27.00
2018-11-23T22:37:50.988Z,27.57
2018-11-23T22:40:20.807Z,28.63
2018-11-23T22:42:51.009Z,27.67
2018-11-23T22:45:19.546Z,26.40
2018-11-23T22:47:48.054Z,28.97
2018-11-23T22:50:20.287Z,30.20
2018-11-23T22:52:49.024Z,28.20
2018-11-23T22:55:18.241Z,30.27
2018-11-23T22:57:46.900Z,28.07
2018-11-23T23:00:25.402Z,28.67
2018-11-23T23:02:54.061Z,29.50
2018-11-23T23:05:23.520Z,30.90
2018-11-23T23:07:52.014Z,28.10
2018-11-23T23:10:20.879Z,27.87
2018-11-23T23:12:49.425Z,28.87
2018-11-23T23:15:17.956Z,26.93
2018-11-23T23:17:46.557Z,26.40
2018-11-23T23:20:18.219Z,26.20
2018-11-23T23:22:46.866Z,25.70
2018-11-23T23:25:15.381Z,25.53
2018-11-23T23:27:45.029Z,25.70
2018-11-23T23:30:15.687Z,25.67
2018-11-23T23:32:44.629Z,26.07
2018-11-23T23:35:14.123Z,29.30
2018-11-23T23:37:43.158Z,27.10
2018-11-23T23:40:15.860Z,25.27
2018-11-23T23:42:44.486Z,26.70
2018-11-23T23:45:14.193Z,28.70
2018-11-23T23:47:43.249Z,27.90
2018-11-23T23:50:13.221Z,28.77
2018-11-23T23:52:41.704Z,27.47
2018-11-23T23:55:10.992Z,28.33
2018-11-23T23:57:40.956Z,29.07
